Aviation Digital Data Service (ADDS)

Output produced by METARs form (1647 UTC 03 December 2021)
found at http://www.aviationweather.gov/metar/data/
 
METAR text: VNKT 031620Z VRB02KT 6000 FEW015 SCT030 14/12 Q1024 NOSIG
Conditions at: VNKT (KATHMANDU INTL A, NP) observed 1620 UTC 03 December 2021
Temperature: 14.0°C (57°F)
Dewpoint: 12.0°C (54°F) [RH = 88%]
Pressure (altimeter): 30.24 inches Hg (1024.0 mb)
Winds: variable direction winds at 2 MPH (2 knots; 1.0 m/s)
Visibility: 4 miles ( 6 km)
Ceiling: at least 12,000 feet AGL
Clouds: few clouds at 1500 feet AGL
scattered clouds at 3000 feet AGL
Weather: no significant weather observed at this time

METAR text: VNKT 031550Z 00000KT 6000 FEW015 SCT030 14/12 Q1024 NOSIG
Conditions at: VNKT (KATHMANDU INTL A, NP) observed 1550 UTC 03 December 2021
Temperature: 14.0°C (57°F)
Dewpoint: 12.0°C (54°F) [RH = 88%]
Pressure (altimeter): 30.24 inches Hg (1024.0 mb)
Winds: calm
Visibility: 4 miles ( 6 km)
Ceiling: at least 12,000 feet AGL
Clouds: few clouds at 1500 feet AGL
scattered clouds at 3000 feet AGL
Weather: no significant weather observed at this time

METAR text: VNKT 031520Z 00000KT 6000 FEW015 SCT030 BKN100 14/12 Q1024 NOSIG
Conditions at: VNKT (KATHMANDU INTL A, NP) observed 1520 UTC 03 December 2021
Temperature: 14.0°C (57°F)
Dewpoint: 12.0°C (54°F) [RH = 88%]
Pressure (altimeter): 30.24 inches Hg (1024.0 mb)
Winds: calm
Visibility: 4 miles ( 6 km)
Ceiling: 10000 feet AGL
Clouds: few clouds at 1500 feet AGL
scattered clouds at 3000 feet AGL
broken clouds at 10000 feet AGL
Weather: no significant weather observed at this time

METAR text: VNKT 031450Z 29003KT 6000 FEW015 SCT030 BKN100 14/13 Q1024 NOSIG
Conditions at: VNKT (KATHMANDU INTL A, NP) observed 1450 UTC 03 December 2021
Temperature: 14.0°C (57°F)
Dewpoint: 13.0°C (55°F) [RH = 94%]
Pressure (altimeter): 30.24 inches Hg (1024.0 mb)
Winds: from the WNW (290 degrees) at 3 MPH (3 knots; 1.5 m/s)
Visibility: 4 miles ( 6 km)
Ceiling: 10000 feet AGL
Clouds: few clouds at 1500 feet AGL
scattered clouds at 3000 feet AGL
broken clouds at 10000 feet AGL
Weather: no significant weather observed at this time

METAR text: VNKT 031420Z 31003KT 6000 -RA FEW015 SCT030 BKN100 14/13 Q1023 NOSIG
Conditions at: VNKT (KATHMANDU INTL A, NP) observed 1420 UTC 03 December 2021
Temperature: 14.0°C (57°F)
Dewpoint: 13.0°C (55°F) [RH = 94%]
Pressure (altimeter): 30.21 inches Hg (1023.0 mb)
Winds: from the NW (310 degrees) at 3 MPH (3 knots; 1.5 m/s)
Visibility: 4 miles ( 6 km)
Ceiling: 10000 feet AGL
Clouds: few clouds at 1500 feet AGL
scattered clouds at 3000 feet AGL
broken clouds at 10000 feet AGL
Weather: -RA  (light rain)

METAR text: VNKT 031350Z VRB02KT 6000 -RA FEW015 SCT030 BKN100 14/13 Q1023 NOSIG
Conditions at: VNKT (KATHMANDU INTL A, NP) observed 1350 UTC 03 December 2021
Temperature: 14.0°C (57°F)
Dewpoint: 13.0°C (55°F) [RH = 94%]
Pressure (altimeter): 30.21 inches Hg (1023.0 mb)
Winds: variable direction winds at 2 MPH (2 knots; 1.0 m/s)
Visibility: 4 miles ( 6 km)
Ceiling: 10000 feet AGL
Clouds: few clouds at 1500 feet AGL
scattered clouds at 3000 feet AGL
broken clouds at 10000 feet AGL
Weather: -RA  (light rain)

METAR text: VNKT 031320Z VRB02KT 6000 -RA FEW015 SCT030 BKN100 15/13 Q1022 NOSIG
Conditions at: VNKT (KATHMANDU INTL A, NP) observed 1320 UTC 03 December 2021
Temperature: 15.0°C (59°F)
Dewpoint: 13.0°C (55°F) [RH = 88%]
Pressure (altimeter): 30.18 inches Hg (1022.0 mb)
Winds: variable direction winds at 2 MPH (2 knots; 1.0 m/s)
Visibility: 4 miles ( 6 km)
Ceiling: 10000 feet AGL
Clouds: few clouds at 1500 feet AGL
scattered clouds at 3000 feet AGL
broken clouds at 10000 feet AGL
Weather: -RA  (light rain)

METAR text: VNKT 031250Z 00000KT 6000 -RA FEW015 SCT030 BKN100 15/11 Q1022 NOSIG
Conditions at: VNKT (KATHMANDU INTL A, NP) observed 1250 UTC 03 December 2021
Temperature: 15.0°C (59°F)
Dewpoint: 11.0°C (52°F) [RH = 77%]
Pressure (altimeter): 30.18 inches Hg (1022.0 mb)
Winds: calm
Visibility: 4 miles ( 6 km)
Ceiling: 10000 feet AGL
Clouds: few clouds at 1500 feet AGL
scattered clouds at 3000 feet AGL
broken clouds at 10000 feet AGL
Weather: -RA  (light rain)

METAR text: VNKT 031220Z 00000KT 6000 -RA FEW015 SCT030 BKN100 15/10 Q1022 NOSIG
Conditions at: VNKT (KATHMANDU INTL A, NP) observed 1220 UTC 03 December 2021
Temperature: 15.0°C (59°F)
Dewpoint: 10.0°C (50°F) [RH = 72%]
Pressure (altimeter): 30.18 inches Hg (1022.0 mb)
Winds: calm
Visibility: 4 miles ( 6 km)
Ceiling: 10000 feet AGL
Clouds: few clouds at 1500 feet AGL
scattered clouds at 3000 feet AGL
broken clouds at 10000 feet AGL
Weather: -RA  (light rain)

METAR text: VNKT 031150Z VRB02KT 7000 FEW015 SCT030 BKN100 15/10 Q1021 NOSIG
Conditions at: VNKT (KATHMANDU INTL A, NP) observed 1150 UTC 03 December 2021
Temperature: 15.0°C (59°F)
Dewpoint: 10.0°C (50°F) [RH = 72%]
Pressure (altimeter): 30.15 inches Hg (1021.0 mb)
Winds: variable direction winds at 2 MPH (2 knots; 1.0 m/s)
Visibility: 4 miles ( 7 km)
Ceiling: 10000 feet AGL
Clouds: few clouds at 1500 feet AGL
scattered clouds at 3000 feet AGL
broken clouds at 10000 feet AGL
Weather: no significant weather observed at this time

METAR text: VNKT 031120Z 25003KT 7000 FEW015 SCT030 BKN100 15/11 Q1021 NOSIG
Conditions at: VNKT (KATHMANDU INTL A, NP) observed 1120 UTC 03 December 2021
Temperature: 15.0°C (59°F)
Dewpoint: 11.0°C (52°F) [RH = 77%]
Pressure (altimeter): 30.15 inches Hg (1021.0 mb)
Winds: from the WSW (250 degrees) at 3 MPH (3 knots; 1.5 m/s)
Visibility: 4 miles ( 7 km)
Ceiling: 10000 feet AGL
Clouds: few clouds at 1500 feet AGL
scattered clouds at 3000 feet AGL
broken clouds at 10000 feet AGL
Weather: no significant weather observed at this time

METAR text: VNKT 031050Z 28004KT 7000 DZ FEW015 SCT030 BKN100 16/10 Q1021 NOSIG
Conditions at: VNKT (KATHMANDU INTL A, NP) observed 1050 UTC 03 December 2021
Temperature: 16.0°C (61°F)
Dewpoint: 10.0°C (50°F) [RH = 68%]
Pressure (altimeter): 30.15 inches Hg (1021.0 mb)
Winds: from the W (280 degrees) at 5 MPH (4 knots; 2.1 m/s)
Visibility: 4 miles ( 7 km)
Ceiling: 10000 feet AGL
Clouds: few clouds at 1500 feet AGL
scattered clouds at 3000 feet AGL
broken clouds at 10000 feet AGL
Weather: DZ  (moderate drizzle)

METAR text: VNKT 031020Z 28008KT 7000 DZ FEW015 SCT030 BKN100 17/09 Q1021 NOSIG
Conditions at: VNKT (KATHMANDU INTL A, NP) observed 1020 UTC 03 December 2021
Temperature: 17.0°C (63°F)
Dewpoint: 9.0°C (48°F) [RH = 59%]
Pressure (altimeter): 30.15 inches Hg (1021.0 mb)
Winds: from the W (280 degrees) at 9 MPH (8 knots; 4.1 m/s)
Visibility: 4 miles ( 7 km)
Ceiling: 10000 feet AGL
Clouds: few clouds at 1500 feet AGL
scattered clouds at 3000 feet AGL
broken clouds at 10000 feet AGL
Weather: DZ  (moderate drizzle)

METAR text: VNKT 030950Z 28008KT 7000 FEW015 SCT030 BKN100 18/09 Q1021 NOSIG
Conditions at: VNKT (KATHMANDU INTL A, NP) observed 0950 UTC 03 December 2021
Temperature: 18.0°C (64°F)
Dewpoint: 9.0°C (48°F) [RH = 56%]
Pressure (altimeter): 30.15 inches Hg (1021.0 mb)
Winds: from the W (280 degrees) at 9 MPH (8 knots; 4.1 m/s)
Visibility: 4 miles ( 7 km)
Ceiling: 10000 feet AGL
Clouds: few clouds at 1500 feet AGL
scattered clouds at 3000 feet AGL
broken clouds at 10000 feet AGL
Weather: no significant weather observed at this time

METAR text: VNKT 030920Z 28009KT 7000 FEW015 SCT030 BKN100 19/09 Q1021 NOSIG
Conditions at: VNKT (KATHMANDU INTL A, NP) observed 0920 UTC 03 December 2021
Temperature: 19.0°C (66°F)
Dewpoint: 9.0°C (48°F) [RH = 52%]
Pressure (altimeter): 30.15 inches Hg (1021.0 mb)
Winds: from the W (280 degrees) at 10 MPH (9 knots; 4.6 m/s)
Visibility: 4 miles ( 7 km)
Ceiling: 10000 feet AGL
Clouds: few clouds at 1500 feet AGL
scattered clouds at 3000 feet AGL
broken clouds at 10000 feet AGL
Weather: no significant weather observed at this time

METAR text: VNKT 030850Z 29008KT 240V340 7000 FEW015 SCT030 BKN100 20/07 Q1021 NOSIG
Conditions at: VNKT (KATHMANDU INTL A, NP) observed 0850 UTC 03 December 2021
Temperature: 20.0°C (68°F)
Dewpoint: 7.0°C (45°F) [RH = 43%]
Pressure (altimeter): 30.15 inches Hg (1021.0 mb)
Winds: from the WNW (290 degrees) at 9 MPH (8 knots; 4.1 m/s)
Visibility: 4 miles ( 7 km)
Ceiling: 10000 feet AGL
Clouds: few clouds at 1500 feet AGL
scattered clouds at 3000 feet AGL
broken clouds at 10000 feet AGL
Weather: no significant weather observed at this time

METAR text: VNKT 030820Z 32004KT 6000 FEW015 SCT030 BKN100 20/08 Q1021 NOSIG
Conditions at: VNKT (KATHMANDU INTL A, NP) observed 0820 UTC 03 December 2021
Temperature: 20.0°C (68°F)
Dewpoint: 8.0°C (46°F) [RH = 46%]
Pressure (altimeter): 30.15 inches Hg (1021.0 mb)
Winds: from the NW (320 degrees) at 5 MPH (4 knots; 2.1 m/s)
Visibility: 4 miles ( 6 km)
Ceiling: 10000 feet AGL
Clouds: few clouds at 1500 feet AGL
scattered clouds at 3000 feet AGL
broken clouds at 10000 feet AGL
Weather: no significant weather observed at this time

METAR text: VNKT 030750Z 34006KT 6000 FEW015 SCT030 BKN100 19/09 Q1022 NOSIG
Conditions at: VNKT (KATHMANDU INTL A, NP) observed 0750 UTC 03 December 2021
Temperature: 19.0°C (66°F)
Dewpoint: 9.0°C (48°F) [RH = 52%]
Pressure (altimeter): 30.18 inches Hg (1022.0 mb)
Winds: from the NNW (340 degrees) at 7 MPH (6 knots; 3.1 m/s)
Visibility: 4 miles ( 6 km)
Ceiling: 10000 feet AGL
Clouds: few clouds at 1500 feet AGL
scattered clouds at 3000 feet AGL
broken clouds at 10000 feet AGL
Weather: no significant weather observed at this time

METAR text: VNKT 030720Z 30005KT 240V340 6000 FEW015 SCT030 BKN100 20/08 Q1022 NOSIG
Conditions at: VNKT (KATHMANDU INTL A, NP) observed 0720 UTC 03 December 2021
Temperature: 20.0°C (68°F)
Dewpoint: 8.0°C (46°F) [RH = 46%]
Pressure (altimeter): 30.18 inches Hg (1022.0 mb)
Winds: from the WNW (300 degrees) at 6 MPH (5 knots; 2.6 m/s)
Visibility: 4 miles ( 6 km)
Ceiling: 10000 feet AGL
Clouds: few clouds at 1500 feet AGL
scattered clouds at 3000 feet AGL
broken clouds at 10000 feet AGL
Weather: no significant weather observed at this time

METAR text: VNKT 030650Z 34003KT 6000 FEW015 SCT030 BKN100 19/09 Q1022 NOSIG
Conditions at: VNKT (KATHMANDU INTL A, NP) observed 0650 UTC 03 December 2021
Temperature: 19.0°C (66°F)
Dewpoint: 9.0°C (48°F) [RH = 52%]
Pressure (altimeter): 30.18 inches Hg (1022.0 mb)
Winds: from the NNW (340 degrees) at 3 MPH (3 knots; 1.5 m/s)
Visibility: 4 miles ( 6 km)
Ceiling: 10000 feet AGL
Clouds: few clouds at 1500 feet AGL
scattered clouds at 3000 feet AGL
broken clouds at 10000 feet AGL
Weather: no significant weather observed at this time

METAR text: VNKT 030620Z 29003KT 6000 FEW015 SCT030 BKN100 19/08 Q1023 NOSIG
Conditions at: VNKT (KATHMANDU INTL A, NP) observed 0620 UTC 03 December 2021
Temperature: 19.0°C (66°F)
Dewpoint: 8.0°C (46°F) [RH = 49%]
Pressure (altimeter): 30.21 inches Hg (1023.0 mb)
Winds: from the WNW (290 degrees) at 3 MPH (3 knots; 1.5 m/s)
Visibility: 4 miles ( 6 km)
Ceiling: 10000 feet AGL
Clouds: few clouds at 1500 feet AGL
scattered clouds at 3000 feet AGL
broken clouds at 10000 feet AGL
Weather: no significant weather observed at this time

METAR text: VNKT 030550Z 28003KT 5000 HZ FEW015 SCT030 BKN100 19/09 Q1023 NOSIG
Conditions at: VNKT (KATHMANDU INTL A, NP) observed 0550 UTC 03 December 2021
Temperature: 19.0°C (66°F)
Dewpoint: 9.0°C (48°F) [RH = 52%]
Pressure (altimeter): 30.21 inches Hg (1023.0 mb)
Winds: from the W (280 degrees) at 3 MPH (3 knots; 1.5 m/s)
Visibility: 3 miles ( 5 km)
Ceiling: 10000 feet AGL
Clouds: few clouds at 1500 feet AGL
scattered clouds at 3000 feet AGL
broken clouds at 10000 feet AGL
Weather: HZ  (haze)

METAR text: VNKT 030520Z 29003KT 5000 HZ FEW015 SCT030 BKN100 19/10 Q1024 NOSIG
Conditions at: VNKT (KATHMANDU INTL A, NP) observed 0520 UTC 03 December 2021
Temperature: 19.0°C (66°F)
Dewpoint: 10.0°C (50°F) [RH = 56%]
Pressure (altimeter): 30.24 inches Hg (1024.0 mb)
Winds: from the WNW (290 degrees) at 3 MPH (3 knots; 1.5 m/s)
Visibility: 3 miles ( 5 km)
Ceiling: 10000 feet AGL
Clouds: few clouds at 1500 feet AGL
scattered clouds at 3000 feet AGL
broken clouds at 10000 feet AGL
Weather: HZ  (haze)

METAR text: VNKT 030450Z VRB02KT 5000 HZ FEW015 SCT030 BKN100 18/11 Q1024 NOSIG
Conditions at: VNKT (KATHMANDU INTL A, NP) observed 0450 UTC 03 December 2021
Temperature: 18.0°C (64°F)
Dewpoint: 11.0°C (52°F) [RH = 64%]
Pressure (altimeter): 30.24 inches Hg (1024.0 mb)
Winds: variable direction winds at 2 MPH (2 knots; 1.0 m/s)
Visibility: 3 miles ( 5 km)
Ceiling: 10000 feet AGL
Clouds: few clouds at 1500 feet AGL
scattered clouds at 3000 feet AGL
broken clouds at 10000 feet AGL
Weather: HZ  (haze)

METAR text: VNKT 030420Z 00000KT 5000 HZ FEW015 SCT030 BKN100 16/10 Q1024 NOSIG
Conditions at: VNKT (KATHMANDU INTL A, NP) observed 0420 UTC 03 December 2021
Temperature: 16.0°C (61°F)
Dewpoint: 10.0°C (50°F) [RH = 68%]
Pressure (altimeter): 30.24 inches Hg (1024.0 mb)
Winds: calm
Visibility: 3 miles ( 5 km)
Ceiling: 10000 feet AGL
Clouds: few clouds at 1500 feet AGL
scattered clouds at 3000 feet AGL
broken clouds at 10000 feet AGL
Weather: HZ  (haze)

METAR text: VNKT 030350Z 00000KT 5000 DZ FEW015 SCT030 BKN100 16/11 Q1024 NOSIG
Conditions at: VNKT (KATHMANDU INTL A, NP) observed 0350 UTC 03 December 2021
Temperature: 16.0°C (61°F)
Dewpoint: 11.0°C (52°F) [RH = 72%]
Pressure (altimeter): 30.24 inches Hg (1024.0 mb)
Winds: calm
Visibility: 3 miles ( 5 km)
Ceiling: 10000 feet AGL
Clouds: few clouds at 1500 feet AGL
scattered clouds at 3000 feet AGL
broken clouds at 10000 feet AGL
Weather: DZ  (moderate drizzle)

METAR text: VNKT 030320Z 00000KT 6000 FEW015 SCT030 BKN100 15/11 Q1024 NOSIG
Conditions at: VNKT (KATHMANDU INTL A, NP) observed 0320 UTC 03 December 2021
Temperature: 15.0°C (59°F)
Dewpoint: 11.0°C (52°F) [RH = 77%]
Pressure (altimeter): 30.24 inches Hg (1024.0 mb)
Winds: calm
Visibility: 4 miles ( 6 km)
Ceiling: 10000 feet AGL
Clouds: few clouds at 1500 feet AGL
scattered clouds at 3000 feet AGL
broken clouds at 10000 feet AGL
Weather: no significant weather observed at this time

METAR text: VNKT 030250Z VRB02KT 6000 -RA FEW015 SCT030 BKN100 14/11 Q1023 NOSIG
Conditions at: VNKT (KATHMANDU INTL A, NP) observed 0250 UTC 03 December 2021
Temperature: 14.0°C (57°F)
Dewpoint: 11.0°C (52°F) [RH = 82%]
Pressure (altimeter): 30.21 inches Hg (1023.0 mb)
Winds: variable direction winds at 2 MPH (2 knots; 1.0 m/s)
Visibility: 4 miles ( 6 km)
Ceiling: 10000 feet AGL
Clouds: few clouds at 1500 feet AGL
scattered clouds at 3000 feet AGL
broken clouds at 10000 feet AGL
Weather: -RA  (light rain)

METAR text: VNKT 030220Z 00000KT 6000 FEW015 SCT030 BKN100 15/11 Q1023 NOSIG
Conditions at: VNKT (KATHMANDU INTL A, NP) observed 0220 UTC 03 December 2021
Temperature: 15.0°C (59°F)
Dewpoint: 11.0°C (52°F) [RH = 77%]
Pressure (altimeter): 30.21 inches Hg (1023.0 mb)
Winds: calm
Visibility: 4 miles ( 6 km)
Ceiling: 10000 feet AGL
Clouds: few clouds at 1500 feet AGL
scattered clouds at 3000 feet AGL
broken clouds at 10000 feet AGL
Weather: no significant weather observed at this time

METAR text: VNKT 030150Z 10003KT 6000 FEW015 SCT030 BKN100 13/11 Q1022 NOSIG
Conditions at: VNKT (KATHMANDU INTL A, NP) observed 0150 UTC 03 December 2021
Temperature: 13.0°C (55°F)
Dewpoint: 11.0°C (52°F) [RH = 88%]
Pressure (altimeter): 30.18 inches Hg (1022.0 mb)
Winds: from the E (100 degrees) at 3 MPH (3 knots; 1.5 m/s)
Visibility: 4 miles ( 6 km)
Ceiling: 10000 feet AGL
Clouds: few clouds at 1500 feet AGL
scattered clouds at 3000 feet AGL
broken clouds at 10000 feet AGL
Weather: no significant weather observed at this time

METAR text: VNKT 030120Z 12003KT 6000 FEW015 SCT030 BKN100 12/10 Q1022 NOSIG
Conditions at: VNKT (KATHMANDU INTL A, NP) observed 0120 UTC 03 December 2021
Temperature: 12.0°C (54°F)
Dewpoint: 10.0°C (50°F) [RH = 88%]
Pressure (altimeter): 30.18 inches Hg (1022.0 mb)
Winds: from the ESE (120 degrees) at 3 MPH (3 knots; 1.5 m/s)
Visibility: 4 miles ( 6 km)
Ceiling: 10000 feet AGL
Clouds: few clouds at 1500 feet AGL
scattered clouds at 3000 feet AGL
broken clouds at 10000 feet AGL
Weather: no significant weather observed at this time

METAR text: VNKT 030050Z VRB02KT 6000 FEW015 BKN100 12/10 Q1021 NOSIG
Conditions at: VNKT (KATHMANDU INTL A, NP) observed 0050 UTC 03 December 2021
Temperature: 12.0°C (54°F)
Dewpoint: 10.0°C (50°F) [RH = 88%]
Pressure (altimeter): 30.15 inches Hg (1021.0 mb)
Winds: variable direction winds at 2 MPH (2 knots; 1.0 m/s)
Visibility: 4 miles ( 6 km)
Ceiling: 10000 feet AGL
Clouds: few clouds at 1500 feet AGL
broken clouds at 10000 feet AGL
Weather: no significant weather observed at this time

METAR text: VNKT 030020Z 00000KT 6000 FEW015 SCT030 BKN100 12/10 Q1020 NOSIG
Conditions at: VNKT (KATHMANDU INTL A, NP) observed 0020 UTC 03 December 2021
Temperature: 12.0°C (54°F)
Dewpoint: 10.0°C (50°F) [RH = 88%]
Pressure (altimeter): 30.12 inches Hg (1020.0 mb)
Winds: calm
Visibility: 4 miles ( 6 km)
Ceiling: 10000 feet AGL
Clouds: few clouds at 1500 feet AGL
scattered clouds at 3000 feet AGL
broken clouds at 10000 feet AGL
Weather: no significant weather observed at this time

METAR text: VNKT 022350Z 16003KT 6000 FEW015 SCT030 BKN100 12/10 Q1020 NOSIG
Conditions at: VNKT (KATHMANDU INTL A, NP) observed 2350 UTC 02 December 2021
Temperature: 12.0°C (54°F)
Dewpoint: 10.0°C (50°F) [RH = 88%]
Pressure (altimeter): 30.12 inches Hg (1020.0 mb)
Winds: from the SSE (160 degrees) at 3 MPH (3 knots; 1.5 m/s)
Visibility: 4 miles ( 6 km)
Ceiling: 10000 feet AGL
Clouds: few clouds at 1500 feet AGL
scattered clouds at 3000 feet AGL
broken clouds at 10000 feet AGL
Weather: no significant weather observed at this time

METAR text: VNKT 022250Z VRB02KT 7000 FEW015 SCT030 BKN100 13/10 Q1020 NOSIG
Conditions at: VNKT (KATHMANDU INTL A, NP) observed 2250 UTC 02 December 2021
Temperature: 13.0°C (55°F)
Dewpoint: 10.0°C (50°F) [RH = 82%]
Pressure (altimeter): 30.12 inches Hg (1020.0 mb)
Winds: variable direction winds at 2 MPH (2 knots; 1.0 m/s)
Visibility: 4 miles ( 7 km)
Ceiling: 10000 feet AGL
Clouds: few clouds at 1500 feet AGL
scattered clouds at 3000 feet AGL
broken clouds at 10000 feet AGL
Weather: no significant weather observed at this time

METAR text: VNKT 022150Z 00000KT 7000 FEW015 SCT030 BKN100 13/10 Q1020 NOSIG
Conditions at: VNKT (KATHMANDU INTL A, NP) observed 2150 UTC 02 December 2021
Temperature: 13.0°C (55°F)
Dewpoint: 10.0°C (50°F) [RH = 82%]
Pressure (altimeter): 30.12 inches Hg (1020.0 mb)
Winds: calm
Visibility: 4 miles ( 7 km)
Ceiling: 10000 feet AGL
Clouds: few clouds at 1500 feet AGL
scattered clouds at 3000 feet AGL
broken clouds at 10000 feet AGL
Weather: no significant weather observed at this time

METAR text: VNKT 022050Z 07003KT 7000 FEW015 BKN100 13/10 Q1021 NOSIG
Conditions at: VNKT (KATHMANDU INTL A, NP) observed 2050 UTC 02 December 2021
Temperature: 13.0°C (55°F)
Dewpoint: 10.0°C (50°F) [RH = 82%]
Pressure (altimeter): 30.15 inches Hg (1021.0 mb)
Winds: from the ENE (70 degrees) at 3 MPH (3 knots; 1.5 m/s)
Visibility: 4 miles ( 7 km)
Ceiling: 10000 feet AGL
Clouds: few clouds at 1500 feet AGL
broken clouds at 10000 feet AGL
Weather: no significant weather observed at this time

METAR text: VNKT 021950Z 14004KT 7000 FEW015 BKN100 13/09 Q1021 NOSIG
Conditions at: VNKT (KATHMANDU INTL A, NP) observed 1950 UTC 02 December 2021
Temperature: 13.0°C (55°F)
Dewpoint: 9.0°C (48°F) [RH = 77%]
Pressure (altimeter): 30.15 inches Hg (1021.0 mb)
Winds: from the SE (140 degrees) at 5 MPH (4 knots; 2.1 m/s)
Visibility: 4 miles ( 7 km)
Ceiling: 10000 feet AGL
Clouds: few clouds at 1500 feet AGL
broken clouds at 10000 feet AGL
Weather: no significant weather observed at this time

METAR text: VNKT 021850Z 29003KT 7000 FEW015 BKN100 14/09 Q1022 NOSIG
Conditions at: VNKT (KATHMANDU INTL A, NP) observed 1850 UTC 02 December 2021
Temperature: 14.0°C (57°F)
Dewpoint: 9.0°C (48°F) [RH = 72%]
Pressure (altimeter): 30.18 inches Hg (1022.0 mb)
Winds: from the WNW (290 degrees) at 3 MPH (3 knots; 1.5 m/s)
Visibility: 4 miles ( 7 km)
Ceiling: 10000 feet AGL
Clouds: few clouds at 1500 feet AGL
broken clouds at 10000 feet AGL
Weather: no significant weather observed at this time

METAR text: VNKT 021820Z VRB02KT 7000 FEW015 BKN100 13/09 Q1022 NOSIG
Conditions at: VNKT (KATHMANDU INTL A, NP) observed 1820 UTC 02 December 2021
Temperature: 13.0°C (55°F)
Dewpoint: 9.0°C (48°F) [RH = 77%]
Pressure (altimeter): 30.18 inches Hg (1022.0 mb)
Winds: variable direction winds at 2 MPH (2 knots; 1.0 m/s)
Visibility: 4 miles ( 7 km)
Ceiling: 10000 feet AGL
Clouds: few clouds at 1500 feet AGL
broken clouds at 10000 feet AGL
Weather: no significant weather observed at this time

METAR text: VNKT 021750Z 00000KT 7000 FEW015 BKN100 13/10 Q1022 NOSIG
Conditions at: VNKT (KATHMANDU INTL A, NP) observed 1750 UTC 02 December 2021
Temperature: 13.0°C (55°F)
Dewpoint: 10.0°C (50°F) [RH = 82%]
Pressure (altimeter): 30.18 inches Hg (1022.0 mb)
Winds: calm
Visibility: 4 miles ( 7 km)
Ceiling: 10000 feet AGL
Clouds: few clouds at 1500 feet AGL
broken clouds at 10000 feet AGL
Weather: no significant weather observed at this time

METAR text: VNKT 021720Z 09003KT 7000 FEW015 BKN100 13/09 Q1022 NOSIG
Conditions at: VNKT (KATHMANDU INTL A, NP) observed 1720 UTC 02 December 2021
Temperature: 13.0°C (55°F)
Dewpoint: 9.0°C (48°F) [RH = 77%]
Pressure (altimeter): 30.18 inches Hg (1022.0 mb)
Winds: from the E (90 degrees) at 3 MPH (3 knots; 1.5 m/s)
Visibility: 4 miles ( 7 km)
Ceiling: 10000 feet AGL
Clouds: few clouds at 1500 feet AGL
broken clouds at 10000 feet AGL
Weather: no significant weather observed at this time

METAR text: VNKT 021650Z 11004KT 7000 FEW015 BKN100 13/10 Q1022 NOSIG
Conditions at: VNKT (KATHMANDU INTL A, NP) observed 1650 UTC 02 December 2021
Temperature: 13.0°C (55°F)
Dewpoint: 10.0°C (50°F) [RH = 82%]
Pressure (altimeter): 30.18 inches Hg (1022.0 mb)
Winds: from the ESE (110 degrees) at 5 MPH (4 knots; 2.1 m/s)
Visibility: 4 miles ( 7 km)
Ceiling: 10000 feet AGL
Clouds: few clouds at 1500 feet AGL
broken clouds at 10000 feet AGL
Weather: no significant weather observed at this time

METAR text: VNKT 021620Z 12003KT 7000 FEW015 BKN100 14/09 Q1022 NOSIG
Conditions at: VNKT (KATHMANDU INTL A, NP) observed 1620 UTC 02 December 2021
Temperature: 14.0°C (57°F)
Dewpoint: 9.0°C (48°F) [RH = 72%]
Pressure (altimeter): 30.18 inches Hg (1022.0 mb)
Winds: from the ESE (120 degrees) at 3 MPH (3 knots; 1.5 m/s)
Visibility: 4 miles ( 7 km)
Ceiling: 10000 feet AGL
Clouds: few clouds at 1500 feet AGL
broken clouds at 10000 feet AGL
Weather: no significant weather observed at this time

METAR text: VNKT 021550Z 11004KT 7000 FEW015 BKN100 14/09 Q1022 NOSIG
Conditions at: VNKT (KATHMANDU INTL A, NP) observed 1550 UTC 02 December 2021
Temperature: 14.0°C (57°F)
Dewpoint: 9.0°C (48°F) [RH = 72%]
Pressure (altimeter): 30.18 inches Hg (1022.0 mb)
Winds: from the ESE (110 degrees) at 5 MPH (4 knots; 2.1 m/s)
Visibility: 4 miles ( 7 km)
Ceiling: 10000 feet AGL
Clouds: few clouds at 1500 feet AGL
broken clouds at 10000 feet AGL
Weather: no significant weather observed at this time

METAR text: VNKT 021520Z 00000KT 7000 FEW015 BKN100 14/09 Q1022 NOSIG
Conditions at: VNKT (KATHMANDU INTL A, NP) observed 1520 UTC 02 December 2021
Temperature: 14.0°C (57°F)
Dewpoint: 9.0°C (48°F) [RH = 72%]
Pressure (altimeter): 30.18 inches Hg (1022.0 mb)
Winds: calm
Visibility: 4 miles ( 7 km)
Ceiling: 10000 feet AGL
Clouds: few clouds at 1500 feet AGL
broken clouds at 10000 feet AGL
Weather: no significant weather observed at this time

METAR text: VNKT 021450Z VRB02KT 7000 FEW015 BKN100 15/09 Q1021 NOSIG
Conditions at: VNKT (KATHMANDU INTL A, NP) observed 1450 UTC 02 December 2021
Temperature: 15.0°C (59°F)
Dewpoint: 9.0°C (48°F) [RH = 67%]
Pressure (altimeter): 30.15 inches Hg (1021.0 mb)
Winds: variable direction winds at 2 MPH (2 knots; 1.0 m/s)
Visibility: 4 miles ( 7 km)
Ceiling: 10000 feet AGL
Clouds: few clouds at 1500 feet AGL
broken clouds at 10000 feet AGL
Weather: no significant weather observed at this time

METAR text: VNKT 021420Z VRB02KT 7000 FEW015 BKN100 15/09 Q1020 NOSIG
Conditions at: VNKT (KATHMANDU INTL A, NP) observed 1420 UTC 02 December 2021
Temperature: 15.0°C (59°F)
Dewpoint: 9.0°C (48°F) [RH = 67%]
Pressure (altimeter): 30.12 inches Hg (1020.0 mb)
Winds: variable direction winds at 2 MPH (2 knots; 1.0 m/s)
Visibility: 4 miles ( 7 km)
Ceiling: 10000 feet AGL
Clouds: few clouds at 1500 feet AGL
broken clouds at 10000 feet AGL
Weather: no significant weather observed at this time

METAR text: VNKT 021350Z 19003KT 7000 FEW015 BKN100 16/09 Q1020 NOSIG
Conditions at: VNKT (KATHMANDU INTL A, NP) observed 1350 UTC 02 December 2021
Temperature: 16.0°C (61°F)
Dewpoint: 9.0°C (48°F) [RH = 63%]
Pressure (altimeter): 30.12 inches Hg (1020.0 mb)
Winds: from the S (190 degrees) at 3 MPH (3 knots; 1.5 m/s)
Visibility: 4 miles ( 7 km)
Ceiling: 10000 feet AGL
Clouds: few clouds at 1500 feet AGL
broken clouds at 10000 feet AGL
Weather: no significant weather observed at this time

METAR text: VNKT 021320Z 00000KT 7000 FEW015 BKN250 16/09 Q1020 NOSIG
Conditions at: VNKT (KATHMANDU INTL A, NP) observed 1320 UTC 02 December 2021
Temperature: 16.0°C (61°F)
Dewpoint: 9.0°C (48°F) [RH = 63%]
Pressure (altimeter): 30.12 inches Hg (1020.0 mb)
Winds: calm
Visibility: 4 miles ( 7 km)
Ceiling: 25000 feet AGL
Clouds: few clouds at 1500 feet AGL
broken clouds at 25000 feet AGL
Weather: no significant weather observed at this time

METAR text: VNKT 021250Z 27004KT 7000 FEW015 SCT250 16/09 Q1020 NOSIG
Conditions at: VNKT (KATHMANDU INTL A, NP) observed 1250 UTC 02 December 2021
Temperature: 16.0°C (61°F)
Dewpoint: 9.0°C (48°F) [RH = 63%]
Pressure (altimeter): 30.12 inches Hg (1020.0 mb)
Winds: from the W (270 degrees) at 5 MPH (4 knots; 2.1 m/s)
Visibility: 4 miles ( 7 km)
Ceiling: at least 12,000 feet AGL
Clouds: few clouds at 1500 feet AGL
scattered clouds at 25000 feet AGL
Weather: no significant weather observed at this time

METAR text: VNKT 021220Z 28006KT 8000 FEW015 BKN250 16/09 Q1019 NOSIG
Conditions at: VNKT (KATHMANDU INTL A, NP) observed 1220 UTC 02 December 2021
Temperature: 16.0°C (61°F)
Dewpoint: 9.0°C (48°F) [RH = 63%]
Pressure (altimeter): 30.09 inches Hg (1019.0 mb)
Winds: from the W (280 degrees) at 7 MPH (6 knots; 3.1 m/s)
Visibility: 5 miles ( 8 km)
Ceiling: 25000 feet AGL
Clouds: few clouds at 1500 feet AGL
broken clouds at 25000 feet AGL
Weather: no significant weather observed at this time

METAR text: VNKT 021150Z 28005KT 8000 FEW015 BKN250 16/09 Q1019 NOSIG
Conditions at: VNKT (KATHMANDU INTL A, NP) observed 1150 UTC 02 December 2021
Temperature: 16.0°C (61°F)
Dewpoint: 9.0°C (48°F) [RH = 63%]
Pressure (altimeter): 30.09 inches Hg (1019.0 mb)
Winds: from the W (280 degrees) at 6 MPH (5 knots; 2.6 m/s)
Visibility: 5 miles ( 8 km)
Ceiling: 25000 feet AGL
Clouds: few clouds at 1500 feet AGL
broken clouds at 25000 feet AGL
Weather: no significant weather observed at this time

METAR text: VNKT 021120Z 27005KT 8000 FEW015 BKN250 17/09 Q1019 NOSIG
Conditions at: VNKT (KATHMANDU INTL A, NP) observed 1120 UTC 02 December 2021
Temperature: 17.0°C (63°F)
Dewpoint: 9.0°C (48°F) [RH = 59%]
Pressure (altimeter): 30.09 inches Hg (1019.0 mb)
Winds: from the W (270 degrees) at 6 MPH (5 knots; 2.6 m/s)
Visibility: 5 miles ( 8 km)
Ceiling: 25000 feet AGL
Clouds: few clouds at 1500 feet AGL
broken clouds at 25000 feet AGL
Weather: no significant weather observed at this time

METAR text: VNKT 021050Z 29009KT 8000 FEW015 BKN250 18/06 Q1019 NOSIG
Conditions at: VNKT (KATHMANDU INTL A, NP) observed 1050 UTC 02 December 2021
Temperature: 18.0°C (64°F)
Dewpoint: 6.0°C (43°F) [RH = 45%]
Pressure (altimeter): 30.09 inches Hg (1019.0 mb)
Winds: from the WNW (290 degrees) at 10 MPH (9 knots; 4.6 m/s)
Visibility: 5 miles ( 8 km)
Ceiling: 25000 feet AGL
Clouds: few clouds at 1500 feet AGL
broken clouds at 25000 feet AGL
Weather: no significant weather observed at this time

METAR text: VNKT 021020Z 28009KT 8000 FEW015 SCT030 BKN250 18/06 Q1019 NOSIG
Conditions at: VNKT (KATHMANDU INTL A, NP) observed 1020 UTC 02 December 2021
Temperature: 18.0°C (64°F)
Dewpoint: 6.0°C (43°F) [RH = 45%]
Pressure (altimeter): 30.09 inches Hg (1019.0 mb)
Winds: from the W (280 degrees) at 10 MPH (9 knots; 4.6 m/s)
Visibility: 5 miles ( 8 km)
Ceiling: 25000 feet AGL
Clouds: few clouds at 1500 feet AGL
scattered clouds at 3000 feet AGL
broken clouds at 25000 feet AGL
Weather: no significant weather observed at this time

METAR text: VNKT 020950Z 29008KT 8000 FEW015 BKN250 19/05 Q1018 NOSIG
Conditions at: VNKT (KATHMANDU INTL A, NP) observed 0950 UTC 02 December 2021
Temperature: 19.0°C (66°F)
Dewpoint: 5.0°C (41°F) [RH = 40%]
Pressure (altimeter): 30.06 inches Hg (1018.0 mb)
Winds: from the WNW (290 degrees) at 9 MPH (8 knots; 4.1 m/s)
Visibility: 5 miles ( 8 km)
Ceiling: 25000 feet AGL
Clouds: few clouds at 1500 feet AGL
broken clouds at 25000 feet AGL
Weather: no significant weather observed at this time

METAR text: VNKT 020920Z 28008KT 8000 FEW015 BKN250 20/05 Q1018 NOSIG
Conditions at: VNKT (KATHMANDU INTL A, NP) observed 0920 UTC 02 December 2021
Temperature: 20.0°C (68°F)
Dewpoint: 5.0°C (41°F) [RH = 37%]
Pressure (altimeter): 30.06 inches Hg (1018.0 mb)
Winds: from the W (280 degrees) at 9 MPH (8 knots; 4.1 m/s)
Visibility: 5 miles ( 8 km)
Ceiling: 25000 feet AGL
Clouds: few clouds at 1500 feet AGL
broken clouds at 25000 feet AGL
Weather: no significant weather observed at this time

METAR text: VNKT 020850Z 29005KT 8000 FEW015 BKN250 21/05 Q1018 NOSIG
Conditions at: VNKT (KATHMANDU INTL A, NP) observed 0850 UTC 02 December 2021
Temperature: 21.0°C (70°F)
Dewpoint: 5.0°C (41°F) [RH = 35%]
Pressure (altimeter): 30.06 inches Hg (1018.0 mb)
Winds: from the WNW (290 degrees) at 6 MPH (5 knots; 2.6 m/s)
Visibility: 5 miles ( 8 km)
Ceiling: 25000 feet AGL
Clouds: few clouds at 1500 feet AGL
broken clouds at 25000 feet AGL
Weather: no significant weather observed at this time

METAR text: VNKT 020820Z 29005KT 6000 FEW015 BKN250 22/05 Q1019 NOSIG
Conditions at: VNKT (KATHMANDU INTL A, NP) observed 0820 UTC 02 December 2021
Temperature: 22.0°C (72°F)
Dewpoint: 5.0°C (41°F) [RH = 33%]
Pressure (altimeter): 30.09 inches Hg (1019.0 mb)
Winds: from the WNW (290 degrees) at 6 MPH (5 knots; 2.6 m/s)
Visibility: 4 miles ( 6 km)
Ceiling: 25000 feet AGL
Clouds: few clouds at 1500 feet AGL
broken clouds at 25000 feet AGL
Weather: no significant weather observed at this time

METAR text: VNKT 020750Z 00000KT 6000 FEW015 BKN250 21/05 Q1019 NOSIG
Conditions at: VNKT (KATHMANDU INTL A, NP) observed 0750 UTC 02 December 2021
Temperature: 21.0°C (70°F)
Dewpoint: 5.0°C (41°F) [RH = 35%]
Pressure (altimeter): 30.09 inches Hg (1019.0 mb)
Winds: calm
Visibility: 4 miles ( 6 km)
Ceiling: 25000 feet AGL
Clouds: few clouds at 1500 feet AGL
broken clouds at 25000 feet AGL
Weather: no significant weather observed at this time

METAR text: VNKT 020720Z 23004KT 6000 FEW015 BKN250 21/03 Q1020 NOSIG
Conditions at: VNKT (KATHMANDU INTL A, NP) observed 0720 UTC 02 December 2021
Temperature: 21.0°C (70°F)
Dewpoint: 3.0°C (37°F) [RH = 30%]
Pressure (altimeter): 30.12 inches Hg (1020.0 mb)
Winds: from the SW (230 degrees) at 5 MPH (4 knots; 2.1 m/s)
Visibility: 4 miles ( 6 km)
Ceiling: 25000 feet AGL
Clouds: few clouds at 1500 feet AGL
broken clouds at 25000 feet AGL
Weather: no significant weather observed at this time

METAR text: VNKT 020650Z 29003KT 6000 FEW015 BKN250 20/06 Q1021 NOSIG
Conditions at: VNKT (KATHMANDU INTL A, NP) observed 0650 UTC 02 December 2021
Temperature: 20.0°C (68°F)
Dewpoint: 6.0°C (43°F) [RH = 40%]
Pressure (altimeter): 30.15 inches Hg (1021.0 mb)
Winds: from the WNW (290 degrees) at 3 MPH (3 knots; 1.5 m/s)
Visibility: 4 miles ( 6 km)
Ceiling: 25000 feet AGL
Clouds: few clouds at 1500 feet AGL
broken clouds at 25000 feet AGL
Weather: no significant weather observed at this time

METAR text: VNKT 020620Z 30003KT 6000 FEW015 BKN250 20/07 Q1021 NOSIG
Conditions at: VNKT (KATHMANDU INTL A, NP) observed 0620 UTC 02 December 2021
Temperature: 20.0°C (68°F)
Dewpoint: 7.0°C (45°F) [RH = 43%]
Pressure (altimeter): 30.15 inches Hg (1021.0 mb)
Winds: from the WNW (300 degrees) at 3 MPH (3 knots; 1.5 m/s)
Visibility: 4 miles ( 6 km)
Ceiling: 25000 feet AGL
Clouds: few clouds at 1500 feet AGL
broken clouds at 25000 feet AGL
Weather: no significant weather observed at this time

METAR text: VNKT 020550Z VRB02KT 6000 FEW015 BKN250 19/09 Q1022 NOSIG
Conditions at: VNKT (KATHMANDU INTL A, NP) observed 0550 UTC 02 December 2021
Temperature: 19.0°C (66°F)
Dewpoint: 9.0°C (48°F) [RH = 52%]
Pressure (altimeter): 30.18 inches Hg (1022.0 mb)
Winds: variable direction winds at 2 MPH (2 knots; 1.0 m/s)
Visibility: 4 miles ( 6 km)
Ceiling: 25000 feet AGL
Clouds: few clouds at 1500 feet AGL
broken clouds at 25000 feet AGL
Weather: no significant weather observed at this time

METAR text: VNKT 020520Z VRB02KT 6000 FEW015 BKN250 19/09 Q1022 NOSIG
Conditions at: VNKT (KATHMANDU INTL A, NP) observed 0520 UTC 02 December 2021
Temperature: 19.0°C (66°F)
Dewpoint: 9.0°C (48°F) [RH = 52%]
Pressure (altimeter): 30.18 inches Hg (1022.0 mb)
Winds: variable direction winds at 2 MPH (2 knots; 1.0 m/s)
Visibility: 4 miles ( 6 km)
Ceiling: 25000 feet AGL
Clouds: few clouds at 1500 feet AGL
broken clouds at 25000 feet AGL
Weather: no significant weather observed at this time

METAR text: VNKT 020450Z 09003KT 040V130 6000 FEW015 SCT030 BKN100 17/09 Q1023 NOSIG
Conditions at: VNKT (KATHMANDU INTL A, NP) observed 0450 UTC 02 December 2021
Temperature: 17.0°C (63°F)
Dewpoint: 9.0°C (48°F) [RH = 59%]
Pressure (altimeter): 30.21 inches Hg (1023.0 mb)
Winds: from the E (90 degrees) at 3 MPH (3 knots; 1.5 m/s)
Visibility: 4 miles ( 6 km)
Ceiling: 10000 feet AGL
Clouds: few clouds at 1500 feet AGL
scattered clouds at 3000 feet AGL
broken clouds at 10000 feet AGL
Weather: no significant weather observed at this time

Forecast for: VNKT (KATHMANDU INTL A, NP)
Text: TAF VNKT 031100Z 0312/0412 28007KT 7000 DZ FEW015 SCT030 BKN100
Forecast period: 1200 to 1400 UTC 03 December 2021
Forecast type: FROM: standard forecast or significant change
Winds: from the W (280 degrees) at 8 MPH (7 knots; 3.6 m/s)
Visibility: 4 miles (7 km)
Ceiling: 10000 feet AGL
Clouds: few clouds at 1500 feet AGL
scattered clouds at 3000 feet AGL
broken clouds at 10000 feet AGL
Weather: DZ  (moderate drizzle)
Text: BECMG 0314/0316 11004KT 6000 FEW015 SCT030 BKN100
Forecast period: 1400 UTC 03 December 2021 to 0000 UTC 04 December 2021
Forecast type: BECOMING: Conditions expected to become as follows by 1600 UTC 03 December 2021
Winds: from the ESE (110 degrees) at 5 MPH (4 knots; 2.1 m/s)
Visibility: 4 miles (6 km)
Ceiling: 10000 feet AGL
Clouds: few clouds at 1500 feet AGL
scattered clouds at 3000 feet AGL
broken clouds at 10000 feet AGL
Weather: DZ  (moderate drizzle)
Text: PROB40 0316/0318 5000 -RA
Forecast period: 1600 to 1800 UTC 03 December 2021
Forecast type: PROBABLE: 40 percent likelihood of the following during this time
Visibility: 3 miles (5 km)
Ceiling: unknown
Clouds: missing
Weather: -RA  (light rain)
Text: BECMG 0400/0402 VRB02KT 5000 HZ FEW010 SCT025 BKN100
Forecast period: 0000 to 0400 UTC 04 December 2021
Forecast type: BECOMING: Conditions expected to become as follows by 0200 UTC 04 December 2021
Winds: variable direction winds at 2 MPH (2 knots; 1.0 m/s)
Visibility: 3 miles (5 km)
Ceiling: 10000 feet AGL
Clouds: few clouds at 1000 feet AGL
scattered clouds at 2500 feet AGL
broken clouds at 10000 feet AGL
Weather: HZ  (haze)
Text: PROB30 0401/0403 4000 BR
Forecast period: 0100 to 0300 UTC 04 December 2021
Forecast type: PROBABLE: 30 percent likelihood of the following during this time
Visibility: 2.49 miles (4.01 km)
Ceiling: unknown
Clouds: missing
Weather: BR  (mist)
Text: BECMG 0404/0406 28003KT 6000 FEW015 SCT030 BKN100
Forecast period: 0400 to 0800 UTC 04 December 2021
Forecast type: BECOMING: Conditions expected to become as follows by 0600 UTC 04 December 2021
Winds: from the W (280 degrees) at 3 MPH (3 knots; 1.5 m/s)
Visibility: 4 miles (6 km)
Ceiling: 10000 feet AGL
Clouds: few clouds at 1500 feet AGL
scattered clouds at 3000 feet AGL
broken clouds at 10000 feet AGL
Weather: HZ  (haze)
Text: BECMG 0408/0410 34006KT 7000 FEW020 SCT030
Forecast period: 0800 to 1200 UTC 04 December 2021
Forecast type: BECOMING: Conditions expected to become as follows by 1000 UTC 04 December 2021
Winds: from the NNW (340 degrees) at 7 MPH (6 knots; 3.1 m/s)
Visibility: 4 miles (7 km)
Ceiling: at least 12,000 feet AGL
Clouds: few clouds at 2000 feet AGL
scattered clouds at 3000 feet AGL
Weather: HZ  (haze)